Time;durP1;ratioP1;P1;durP2;ratioP2;P2;SDS_P1;SDS_P2;PMS_P1;PMS_P2;Temp;Humidity;BMP_temperature;BMP_pressure;BME280_temperature;BME280_humidity;BME280_pressure;Samples;Min_cycle;Max_cycle;Signal;HPM_P1;HPM_P2
2022/01/20 00:04:13;;;;;;;39.47;22.73;;;;;;;10.87;53.86;101628.81;4917504;29;20135;-75
2022/01/20 00:28:29;;;;;;;38.80;20.73;;;;;;;10.18;53.19;101601.97;4910363;29;20225;-77
2022/01/20 00:31:06;;;;;;;29.67;17.30;;;;;;;10.31;53.03;101619.53;4904405;29;20056;-74
2022/01/20 00:33:57;;;;;;;49.63;21.83;;;;;;;10.10;53.10;101587.59;4909805;29;20453;-76
2022/01/20 00:39:08;;;;;;;42.27;20.67;;;;;;;10.55;52.18;101620.22;4921245;29;20067;-71
2022/01/20 00:41:35;;;;;;;43.10;21.13;;;;;;;10.50;52.25;101623.78;4922978;29;20048;-70
2022/01/20 00:44:02;;;;;;;44.33;22.63;;;;;;;10.43;52.51;101620.31;4925898;29;20086;-70
2022/01/20 00:46:29;;;;;;;38.97;21.10;;;;;;;10.27;52.71;101596.88;4916845;29;20060;-70
2022/01/20 00:48:56;;;;;;;36.70;21.07;;;;;;;10.33;52.64;101606.19;4932821;29;20058;-68
2022/01/20 00:51:23;;;;;;;48.03;23.73;;;;;;;10.27;52.66;101596.03;4941708;29;20048;-73
2022/01/20 00:53:51;;;;;;;43.20;24.23;;;;;;;10.38;51.61;101581.97;4935705;29;20048;-78
2022/01/20 00:56:18;;;;;;;42.27;22.67;;;;;;;10.73;51.46;101616.31;4936798;29;20055;-81
2022/01/20 00:58:45;;;;;;;44.13;23.93;;;;;;;10.76;51.13;101613.00;4939637;29;20079;-79
2022/01/20 01:01:12;;;;;;;44.97;23.97;;;;;;;10.80;51.05;101614.19;4936652;29;20047;-80
2022/01/20 01:03:40;;;;;;;46.93;23.60;;;;;;;10.68;51.14;101590.00;4930923;29;20056;-79
2022/01/20 01:06:24;;;;;;;38.50;22.67;;;;;;;10.82;51.03;101606.41;4920370;29;20052;-81
2022/01/20 01:08:52;;;;;;;31.47;19.77;;;;;;;10.60;51.31;101593.22;4913869;29;20052;-81
2022/01/20 01:11:21;;;;;;;25.07;12.33;;;;;;;10.49;51.33;101580.19;4942261;28;20135;-80
2022/01/20 01:13:49;;;;;;;19.90;11.77;;;;;;;10.49;51.43;101585.75;4910273;29;20146;-83
2022/01/20 01:16:19;;;;;;;32.83;16.73;;;;;;;10.24;51.27;101551.81;4913277;29;20060;-82
2022/01/20 01:21:44;;;;;;;39.30;20.70;;;;;;;10.65;50.71;101596.09;4915421;29;20078;-77
2022/01/20 01:24:12;;;;;;;37.03;18.33;;;;;;;10.68;50.60;101597.53;4913520;29;20495;-78
2022/01/20 01:26:39;;;;;;;39.40;20.60;;;;;;;10.80;50.16;101589.03;4909929;29;20086;-77
2022/01/20 01:29:29;;;;;;;40.53;19.97;;;;;;;10.56;50.30;101561.28;4912200;29;20136;-77
2022/01/20 01:31:55;;;;;;;31.55;18.35;;;;;;;10.64;50.52;101586.03;4913961;29;20066;-77
2022/01/20 01:34:23;;;;;;;14.90;9.07;;;;;;;10.40;50.54;101553.81;4913377;29;20056;-76
2022/01/20 01:39:28;;;;;;;16.60;8.63;;;;;;;9.94;51.04;101519.50;4916091;29;20102;-75
2022/01/20 01:41:57;;;;;;;19.43;10.10;;;;;;;9.92;51.18;101535.66;4914215;29;20143;-76
2022/01/20 01:44:28;;;;;;;27.00;13.10;;;;;;;10.06;51.12;101573.31;4916288;29;20063;-76
2022/01/20 01:46:58;;;;;;;34.43;19.20;;;;;;;10.14;50.83;101574.81;4915759;29;20067;-75
2022/01/20 01:49:25;;;;;;;35.38;21.73;;;;;;;10.31;50.37;101553.38;4918687;29;20075;-72
2022/01/20 01:51:52;;;;;;;37.67;20.73;;;;;;;10.62;49.77;101584.56;4949609;29;20131;-74
2022/01/20 01:54:19;;;;;;;37.77;23.10;;;;;;;10.35;49.71;101526.63;4918842;29;20143;-74
2022/01/20 01:56:48;;;;;;;40.50;21.13;;;;;;;10.55;49.57;101565.19;4915831;29;20139;-76
2022/01/20 01:59:15;;;;;;;39.45;21.02;;;;;;;10.41;49.68;101553.53;4920009;29;20068;-74
2022/01/20 02:01:42;;;;;;;32.57;17.47;;;;;;;10.71;49.42;101590.59;4916753;29;20096;-74
2022/01/20 02:04:17;;;;;;;26.93;13.13;;;;;;;10.30;49.26;101528.50;4917438;29;20062;-82
2022/01/20 02:09:38;;;;;;;28.80;13.53;;;;;;;10.82;48.66;101592.44;4914718;29;20135;-75
2022/01/20 02:20:17;;;;;;;13.70;8.23;;;;;;;10.74;46.73;101553.75;4918333;29;20052;-78
2022/01/20 02:22:43;;;;;;;25.10;13.43;;;;;;;10.70;46.73;101544.19;4913817;29;20575;-76
2022/01/20 02:25:21;;;;;;;24.53;12.43;;;;;;;11.00;46.54;101591.28;4917567;29;20131;-76
2022/01/20 02:27:50;;;;;;;24.77;11.33;;;;;;;10.89;46.31;101567.94;4917686;29;20134;-74
2022/01/20 02:30:20;;;;;;;26.17;13.43;;;;;;;11.04;46.26;101584.94;4917028;29;20087;-75
2022/01/20 02:33:00;;;;;;;28.45;14.48;;;;;;;11.02;46.13;101587.13;4916741;29;20464;-73
2022/01/20 02:35:31;;;;;;;26.67;12.83;;;;;;;11.04;46.09;101584.94;4918821;29;20082;-74
2022/01/20 02:38:05;;;;;;;;;;;;;;;10.90;46.24;101573.25;4919347;29;20090;-77
2022/01/20 02:45:44;;;;;;;26.80;14.80;;;;;;;10.85;46.08;101576.00;4912061;29;20151;-74
2022/01/20 02:48:11;;;;;;;26.97;14.27;;;;;;;10.82;46.22;101573.72;4915533;29;20155;-76
2022/01/20 02:50:38;;;;;;;23.60;12.50;;;;;;;10.68;46.14;101558.41;4918402;29;20151;-75
2022/01/20 02:53:04;;;;;;;25.27;12.67;;;;;;;10.76;46.22;101577.53;4918396;29;20048;-74
2022/01/20 02:55:31;;;;;;;22.50;12.27;;;;;;;10.77;45.90;101569.97;4916989;29;20139;-74
2022/01/20 02:57:58;;;;;;;24.27;13.20;;;;;;;10.78;45.94;101568.91;4916140;29;20571;-71
2022/01/20 03:00:25;;;;;;;31.77;15.27;;;;;;;10.86;45.67;101574.03;4901328;29;20135;-69
2022/01/20 03:02:52;;;;;;;23.63;10.80;;;;;;;10.82;45.55;101542.13;4914315;29;20056;-71
2022/01/20 03:05:19;;;;;;;23.80;12.80;;;;;;;11.07;45.31;101566.78;4913532;29;20059;-73
2022/01/20 03:07:46;;;;;;;20.73;12.60;;;;;;;11.17;45.07;101560.47;4918093;29;20566;-72
2022/01/20 03:10:13;;;;;;;24.10;14.07;;;;;;;10.90;45.14;101513.72;4915382;29;20075;-74
2022/01/20 03:12:40;;;;;;;23.83;14.33;;;;;;;11.06;44.94;101543.56;4915493;29;20064;-75
2022/01/20 03:15:07;;;;;;;26.47;12.87;;;;;;;11.01;44.91;101534.25;4917508;29;20147;-76
2022/01/20 03:17:34;;;;;;;24.93;11.73;;;;;;;11.18;45.07;101565.81;4917144;29;20091;-76
2022/01/20 03:20:04;;;;;;;26.70;14.23;;;;;;;10.86;45.26;101510.59;4918054;29;20135;-75
2022/01/20 03:22:30;;;;;;;22.90;12.50;;;;;;;11.16;45.35;101554.03;4914775;29;20084;-76
2022/01/20 03:24:58;;;;;;;19.97;11.73;;;;;;;11.13;45.12;101552.59;4916386;29;20131;-77
2022/01/20 03:27:25;;;;;;;21.73;13.37;;;;;;;11.14;45.26;101557.13;4914750;29;20128;-72
2022/01/20 03:29:52;;;;;;;18.93;11.07;;;;;;;10.67;44.86;101478.53;4914318;29;20455;-74
2022/01/20 03:32:19;;;;;;;22.60;12.00;;;;;;;11.08;45.04;101546.97;4916064;29;20131;-75
2022/01/20 03:34:46;;;;;;;31.57;14.40;;;;;;;11.09;44.95;101554.22;4915344;29;20052;-70
2022/01/20 03:37:12;;;;;;;24.80;14.20;;;;;;;11.02;45.10;101553.59;4916387;29;20056;-71
2022/01/20 03:39:39;;;;;;;24.77;15.40;;;;;;;10.99;45.25;101550.47;4912996;29;20070;-70
2022/01/20 03:42:06;;;;;;;21.20;12.80;;;;;;;10.96;45.06;101559.38;4913515;29;20476;-79
2022/01/20 03:44:33;;;;;;;29.23;13.80;;;;;;;10.89;45.11;101553.97;4914607;29;20048;-78
2022/01/20 03:47:02;;;;;;;23.33;12.37;;;;;;;10.87;45.09;101557.03;4908854;29;20048;-73
2022/01/20 03:49:51;;;;;;;26.73;13.97;;;;;;;10.78;45.54;101546.56;4918413;29;20075;-80
2022/01/20 03:52:16;;;;;;;22.17;12.30;;;;;;;10.80;45.33;101535.94;4909680;29;20063;-81
2022/01/20 03:54:43;;;;;;;17.77;11.10;;;;;;;10.78;45.30;101540.97;4911059;29;20082;-81
2022/01/20 03:57:10;;;;;;;16.80;9.20;;;;;;;10.57;45.10;101509.94;4912544;29;20056;-78
2022/01/20 03:59:37;;;;;;;14.67;7.77;;;;;;;10.42;45.22;101518.06;4944548;29;20040;-81
2022/01/20 04:02:05;;;;;;;13.37;6.93;;;;;;;10.60;44.91;101544.91;4912653;29;20472;-81
2022/01/20 04:04:32;;;;;;;13.03;6.10;;;;;;;10.52;44.41;101521.03;4915982;29;20060;-85
2022/01/20 04:06:59;;;;;;;12.17;7.27;;;;;;;10.61;43.62;101507.47;4917018;29;20553;-81
2022/01/20 04:09:26;;;;;;;15.17;7.93;;;;;;;10.85;43.35;101508.09;4910847;29;20527;-78
2022/01/20 04:11:53;;;;;;;11.00;6.70;;;;;;;10.84;43.33;101509.19;4914238;29;20148;-81
2022/01/20 04:14:23;;;;;;;13.13;7.93;;;;;;;11.04;43.06;101523.44;4915230;29;20131;-79
2022/01/20 04:19:30;;;;;;;12.90;6.97;;;;;;;11.28;42.86;101539.91;4914975;29;20044;-79
2022/01/20 04:21:58;;;;;;;13.80;5.67;;;;;;;11.25;42.34;101546.06;4916684;29;20099;-79
2022/01/20 04:24:25;;;;;;;9.63;6.17;;;;;;;10.91;42.20;101479.94;4914943;29;20159;-78
2022/01/20 04:26:52;;;;;;;8.40;4.80;;;;;;;11.29;41.80;101547.22;4913947;29;20130;-79
2022/01/20 04:29:19;;;;;;;8.60;4.73;;;;;;;11.32;41.88;101527.97;4912973;29;20119;-79
2022/01/20 04:31:48;;;;;;;11.23;7.10;;;;;;;10.98;41.68;101479.75;4925146;29;20129;-79
2022/01/20 04:34:15;;;;;;;13.70;7.10;;;;;;;11.29;41.60;101550.00;4913053;29;20056;-78
2022/01/20 04:36:45;;;;;;;10.10;4.97;;;;;;;11.27;41.62;101541.88;4901167;29;20088;-79
2022/01/20 04:39:17;;;;;;;9.70;5.37;;;;;;;11.04;41.30;101505.78;4914094;29;20478;-80
2022/01/20 04:41:44;;;;;;;16.77;8.37;;;;;;;11.20;41.32;101538.44;4936295;29;20052;-75
2022/01/20 04:44:29;;;;;;;12.57;6.83;;;;;;;11.08;41.58;101530.19;4910518;29;20457;-74
2022/01/20 04:47:12;;;;;;;14.07;6.93;;;;;;;10.51;41.46;101429.97;4904021;29;20124;-74
2022/01/20 04:57:56;;;;;;;15.10;8.27;;;;;;;11.03;41.88;101516.13;4913298;29;20143;-74
2022/01/20 05:00:22;;;;;;;15.77;6.90;;;;;;;11.10;41.85;101536.34;4907494;29;20147;-73
2022/01/20 05:02:49;;;;;;;15.87;8.50;;;;;;;11.02;42.06;101531.22;4914721;29;20103;-79
2022/01/20 05:05:16;;;;;;;12.73;7.27;;;;;;;10.49;42.02;101457.31;4914941;29;20136;-80
2022/01/20 05:07:43;;;;;;;13.13;7.50;;;;;;;10.90;42.05;101534.13;4946415;29;20430;-78
2022/01/20 05:10:12;;;;;;;14.10;7.60;;;;;;;11.08;41.85;101543.31;4914075;29;20143;-80
2022/01/20 05:15:21;;;;;;;7.05;4.88;;;;;;;11.00;41.85;101538.16;4914120;29;20473;-76
2022/01/20 05:17:49;;;;;;;15.10;7.63;;;;;;;10.71;41.87;101499.25;4941552;29;20143;-81
2022/01/20 05:20:17;;;;;;;14.07;7.60;;;;;;;10.68;41.86;101499.75;4915342;29;20472;-80
2022/01/20 05:22:44;;;;;;;10.60;6.70;;;;;;;10.98;41.59;101530.06;4914496;29;20071;-78
2022/01/20 05:25:13;;;;;;;11.27;5.57;;;;;;;10.73;41.53;101496.16;4913368;29;20051;-82
2022/01/20 05:27:40;;;;;;;12.13;5.67;;;;;;;10.97;41.49;101533.94;4915497;29;20072;-75
2022/01/20 05:30:08;;;;;;;11.40;4.90;;;;;;;10.91;41.42;101529.41;4914666;29;20054;-76
2022/01/20 05:32:35;;;;;;;8.53;4.93;;;;;;;10.88;41.29;101530.75;4938117;29;20143;-75
2022/01/20 05:35:02;;;;;;;12.93;6.50;;;;;;;10.72;41.22;101491.69;4907988;29;20135;-75
2022/01/20 05:37:29;;;;;;;10.77;5.87;;;;;;;11.05;40.99;101527.06;4925903;29;20139;-76
2022/01/20 05:39:56;;;;;;;6.17;3.00;;;;;;;11.12;41.18;101524.94;4914623;29;20091;-74
2022/01/20 05:42:23;;;;;;;6.00;3.77;;;;;;;10.98;40.90;101496.53;4911535;29;20084;-75
2022/01/20 05:44:51;;;;;;;11.83;5.90;;;;;;;11.10;40.92;101527.97;4914670;29;20159;-75
2022/01/20 05:47:26;;;;;;;11.23;5.57;;;;;;;10.83;40.91;101479.53;4910734;29;20091;-74
2022/01/20 05:49:53;;;;;;;8.03;4.47;;;;;;;11.21;41.02;101522.50;4915931;29;20512;-74
2022/01/20 05:52:20;;;;;;;9.93;5.47;;;;;;;11.16;40.83;101520.50;4910394;29;20052;-74
2022/01/20 05:54:47;;;;;;;6.80;4.17;;;;;;;10.94;40.97;101492.56;4915134;29;20131;-74
2022/01/20 05:57:14;;;;;;;7.00;4.07;;;;;;;10.99;40.80;101487.03;4910849;29;20159;-73
2022/01/20 05:59:41;;;;;;;4.03;2.70;;;;;;;11.09;40.96;101515.09;4909509;29;20083;-74
2022/01/20 06:02:31;;;;;;;3.10;2.60;;;;;;;11.23;40.64;101537.06;4912032;29;20207;-74
2022/01/20 06:04:58;;;;;;;5.10;4.05;;;;;;;11.05;40.61;101521.47;4914152;29;20135;-73
2022/01/20 06:07:26;;;;;;;5.93;3.07;;;;;;;11.10;40.38;101521.53;4915422;29;20155;-75
2022/01/20 06:09:53;;;;;;;3.77;2.03;;;;;;;11.08;40.45;101519.00;4912424;29;20044;-76
2022/01/20 06:12:20;;;;;;;6.43;2.23;;;;;;;10.81;40.32;101504.97;4910466;29;20139;-77
2022/01/20 06:14:46;;;;;;;2.73;2.10;;;;;;;10.98;40.48;101524.47;4915142;29;20079;-75
2022/01/20 06:17:13;;;;;;;3.37;1.67;;;;;;;11.05;40.39;101530.72;4910855;29;20087;-74
2022/01/20 06:19:40;;;;;;;3.87;2.87;;;;;;;11.04;40.23;101542.13;4914107;29;20499;-76
2022/01/20 06:22:10;;;;;;;7.77;2.77;;;;;;;11.08;40.37;101533.00;4910286;29;20054;-76
2022/01/20 06:24:36;;;;;;;3.43;2.30;;;;;;;11.10;39.98;101533.56;4901226;29;20572;-75
2022/01/20 06:27:03;;;;;;;2.23;1.73;;;;;;;11.04;40.14;101543.00;4942099;29;20534;-77
2022/01/20 06:29:30;;;;;;;3.37;2.00;;;;;;;11.03;40.18;101546.88;4905642;29;20138;-75
2022/01/20 06:31:57;;;;;;;7.60;3.57;;;;;;;11.17;39.94;101544.53;4910472;29;20131;-76
2022/01/20 06:34:24;;;;;;;5.10;2.43;;;;;;;11.24;40.02;101550.78;4916805;29;20087;-75
2022/01/20 06:36:50;;;;;;;6.50;3.80;;;;;;;11.33;39.50;101537.19;4913853;29;20104;-72
2022/01/20 06:39:17;;;;;;;5.73;2.77;;;;;;;11.33;39.71;101543.63;4913852;29;20144;-70
2022/01/20 06:41:47;;;;;;;4.80;2.80;;;;;;;11.21;39.66;101516.91;4912572;29;20513;-78
2022/01/20 06:44:14;;;;;;;6.00;2.63;;;;;;;11.25;39.79;101546.91;4908385;29;20142;-69
2022/01/20 06:46:41;;;;;;;5.67;3.00;;;;;;;10.58;40.09;101441.78;4909456;29;20111;-67
2022/01/20 06:49:10;;;;;;;4.53;3.23;;;;;;;11.23;40.13;101537.06;4911573;29;20080;-66
2022/01/20 06:51:37;;;;;;;6.57;3.77;;;;;;;11.23;39.98;101531.47;4912171;29;20503;-66
2022/01/20 06:54:04;;;;;;;4.27;2.60;;;;;;;11.30;39.80;101540.50;4911709;29;20139;-66
2022/01/20 06:56:31;;;;;;;6.17;3.33;;;;;;;10.96;39.98;101492.28;4907387;29;20135;-66
2022/01/20 06:59:09;;;;;;;9.13;4.00;;;;;;;11.20;39.99;101534.78;4907821;29;20154;-67
2022/01/20 07:01:36;;;;;;;3.40;2.77;;;;;;;10.98;40.03;101507.69;4909735;29;20583;-66
2022/01/20 07:04:04;;;;;;;4.40;2.50;;;;;;;10.97;40.19;101533.09;4909794;29;20058;-66
2022/01/20 07:06:31;;;;;;;3.93;1.97;;;;;;;11.01;40.30;101528.66;4909911;29;20503;-67
2022/01/20 07:08:58;;;;;;;3.17;2.43;;;;;;;10.87;40.72;101534.66;4917288;29;20131;-66
2022/01/20 07:11:25;;;;;;;6.37;3.37;;;;;;;10.83;40.39;101521.47;4904835;29;20083;-67
2022/01/20 07:13:52;;;;;;;5.23;1.87;;;;;;;10.66;40.79;101505.56;4916980;29;20087;-67
2022/01/20 07:16:19;;;;;;;4.53;2.00;;;;;;;10.79;40.70;101543.47;4906751;29;20057;-66
2022/01/20 07:18:46;;;;;;;3.27;1.93;;;;;;;10.63;40.62;101514.50;4911665;29;20048;-68
2022/01/20 07:21:13;;;;;;;12.80;3.00;;;;;;;10.80;40.41;101530.34;4910769;29;20254;-66
2022/01/20 07:23:39;;;;;;;4.10;2.30;;;;;;;10.82;40.54;101536.53;4908368;29;20055;-66
2022/01/20 07:26:07;;;;;;;3.23;2.17;;;;;;;10.93;40.67;101532.78;4907662;29;20136;-67
2022/01/20 07:28:34;;;;;;;2.57;1.87;;;;;;;10.94;40.19;101542.00;4914156;29;20131;-66
2022/01/20 07:31:00;;;;;;;5.17;2.47;;;;;;;10.90;40.23;101531.34;4903832;29;20489;-67
2022/01/20 07:33:27;;;;;;;1.73;1.60;;;;;;;10.98;40.25;101535.66;4905669;29;20060;-68
2022/01/20 07:35:54;;;;;;;5.40;2.70;;;;;;;10.70;40.02;101491.09;4906288;29;20064;-67
2022/01/20 07:38:21;;;;;;;6.10;2.73;;;;;;;10.97;39.88;101541.47;4909475;29;20170;-67
2022/01/20 07:40:48;;;;;;;3.50;2.13;;;;;;;11.05;39.71;101541.06;4907332;29;20052;-67
2022/01/20 07:43:15;;;;;;;1.83;1.73;;;;;;;11.11;39.70;101535.25;4901690;29;21032;-67
2022/01/20 07:45:42;;;;;;;3.17;1.43;;;;;;;11.13;39.36;101548.97;4899830;29;20052;-68
2022/01/20 07:48:09;;;;;;;3.77;2.50;;;;;;;11.12;39.61;101553.72;4900929;29;20060;-67
2022/01/20 07:50:36;;;;;;;4.63;1.50;;;;;;;11.11;39.67;101546.44;4897369;29;20063;-67
2022/01/20 07:53:03;;;;;;;2.60;1.70;;;;;;;10.77;39.33;101469.41;4912308;29;20139;-67
2022/01/20 07:55:31;;;;;;;6.77;1.83;;;;;;;11.15;39.21;101544.81;4906502;29;20150;-67
2022/01/20 07:57:58;;;;;;;3.03;2.10;;;;;;;10.85;39.31;101503.34;4900098;29;20056;-68
2022/01/20 08:00:25;;;;;;;4.10;2.00;;;;;;;10.44;39.22;101446.06;4900448;29;20265;-66
2022/01/20 08:02:52;;;;;;;4.77;2.27;;;;;;;11.22;39.56;101546.56;4898972;29;20112;-67
2022/01/20 08:05:19;;;;;;;3.37;1.57;;;;;;;11.17;39.58;101543.69;4897303;29;20052;-68
2022/01/20 08:07:48;;;;;;;1.13;1.03;;;;;;;11.06;39.81;101551.97;4900033;29;20186;-66
2022/01/20 08:10:15;;;;;;;3.17;1.97;;;;;;;11.07;39.74;101550.84;4898472;29;20533;-67
2022/01/20 08:12:45;;;;;;;3.60;2.20;;;;;;;11.00;39.80;101550.19;4899317;29;20052;-66
2022/01/20 08:15:14;;;;;;;4.47;2.63;;;;;;;11.05;39.88;101553.06;4897058;29;20176;-66
2022/01/20 08:17:43;;;;;;;1.90;1.27;;;;;;;11.23;39.64;101549.09;4897628;29;20502;-66
2022/01/20 08:20:10;;;;;;;2.97;2.03;;;;;;;11.46;39.14;101547.13;4899864;29;20064;-66
2022/01/20 08:22:37;;;;;;;2.30;2.10;;;;;;;11.63;38.75;101548.72;4899400;29;20492;-66
2022/01/20 08:25:10;;;;;;;2.27;1.73;;;;;;;11.86;38.53;101557.94;4915633;29;20059;-67
2022/01/20 08:27:38;;;;;;;14.70;4.83;;;;;;;12.17;38.13;101556.28;4906595;29;20068;-67
2022/01/20 08:30:11;;;;;;;5.40;2.53;;;;;;;12.42;37.65;101558.44;4899819;29;20062;-66
2022/01/20 08:32:39;;;;;;;1.10;1.00;;;;;;;12.66;37.01;101561.69;4908295;29;23189;-67
2022/01/20 08:35:09;;;;;;;2.23;1.67;;;;;;;12.85;36.57;101558.44;4903192;29;20135;-67
2022/01/20 08:37:40;;;;;;;4.30;3.13;;;;;;;13.19;36.19;101570.09;4901274;29;20146;-66
2022/01/20 08:40:11;;;;;;;3.27;1.60;;;;;;;13.55;35.74;101571.13;4903924;29;20052;-67
2022/01/20 08:42:39;;;;;;;6.03;2.77;;;;;;;13.86;35.23;101568.41;4911123;29;20146;-67
2022/01/20 08:45:08;;;;;;;5.13;3.27;;;;;;;14.07;34.55;101552.41;4911560;29;20465;-67
2022/01/20 08:47:35;;;;;;;1.47;1.30;;;;;;;14.44;34.25;101583.91;4903718;29;20080;-67
2022/01/20 08:50:05;;;;;;;6.70;3.57;;;;;;;14.70;33.76;101572.69;4928233;29;20080;-66
2022/01/20 08:52:32;;;;;;;;;;;;;;;15.07;33.42;101566.66;4905790;29;20076;-66
2022/01/20 08:54:59;;;;;;;6.50;3.90;;;;;;;15.55;33.14;101552.09;4913993;29;19954;-67
2022/01/20 08:57:27;;;;;;;9.43;4.43;;;;;;;16.42;33.03;101568.44;4912680;29;20559;-66
2022/01/20 08:59:55;;;;;;;4.97;2.90;;;;;;;16.59;32.05;101577.31;4913546;29;20127;-64
2022/01/20 09:02:23;;;;;;;7.37;3.70;;;;;;;16.66;31.58;101568.50;4914869;29;20115;-65
2022/01/20 09:04:50;;;;;;;5.50;4.00;;;;;;;16.75;31.44;101550.69;4913350;29;20575;-65
2022/01/20 09:07:17;;;;;;;8.27;4.03;;;;;;;17.15;30.97;101582.38;4934014;29;20033;-65
2022/01/20 09:09:48;;;;;;;6.45;3.03;;;;;;;17.40;30.90;101563.44;4926526;29;20055;-65
2022/01/20 09:17:32;;;;;;;7.55;4.10;;;;;;;19.00;29.83;101567.13;4924116;29;20360;-65
2022/01/20 09:19:59;;;;;;;6.72;4.38;;;;;;;19.57;29.67;101567.66;4925957;29;20090;-65
2022/01/20 09:22:28;;;;;;;5.35;3.60;;;;;;;19.78;28.70;101564.41;4927610;29;20143;-63
2022/01/20 09:24:55;;;;;;;5.78;3.70;;;;;;;19.99;28.34;101578.94;4937554;29;20055;-63
2022/01/20 09:27:22;;;;;;;5.38;3.28;;;;;;;20.08;28.32;101566.53;4909885;29;20084;-64
2022/01/20 09:29:49;;;;;;;4.97;2.90;;;;;;;20.34;28.20;101569.59;4913450;29;20051;-64
2022/01/20 09:32:17;;;;;;;7.43;3.80;;;;;;;20.61;28.14;101564.09;4906331;29;20091;-65
2022/01/20 09:34:44;;;;;;;10.52;3.95;;;;;;;20.75;27.24;101574.22;4898987;29;20056;-62
2022/01/20 09:37:11;;;;;;;8.30;4.13;;;;;;;20.37;26.70;101522.69;4900089;29;20082;-64
2022/01/20 09:39:40;;;;;;;9.55;3.50;;;;;;;20.85;26.71;101564.56;4913385;29;20126;-64
2022/01/20 09:42:08;;;;;;;9.95;3.97;;;;;;;20.90;26.45;101563.63;4905096;29;20052;-64
2022/01/20 09:44:35;;;;;;;6.03;3.85;;;;;;;21.15;26.31;101570.56;4915537;29;20470;-63
2022/01/20 09:47:02;;;;;;;6.72;3.83;;;;;;;21.58;26.52;101572.78;4912491;29;20433;-64
2022/01/20 09:49:29;;;;;;;4.55;3.13;;;;;;;21.85;25.94;101566.81;4897218;29;20044;-65
2022/01/20 09:51:57;;;;;;;6.28;3.90;;;;;;;22.20;25.66;101549.78;4913419;29;20052;-64
2022/01/20 09:54:23;;;;;;;7.45;4.18;;;;;;;22.78;25.96;101562.56;4914053;29;20079;-64
2022/01/20 09:56:50;;;;;;;6.82;3.55;;;;;;;23.04;25.35;101573.06;4910594;29;20064;-64
2022/01/20 09:59:17;;;;;;;5.97;3.47;;;;;;;23.32;25.31;101567.78;4900316;29;20141;-65
2022/01/20 10:01:45;;;;;;;5.53;3.95;;;;;;;23.50;24.83;101577.06;4899902;29;20062;-64
2022/01/20 10:04:29;;;;;;;6.47;3.63;;;;;;;23.74;25.16;101579.31;4900901;29;20657;-64
2022/01/20 10:06:55;;;;;;;5.60;3.80;;;;;;;23.94;24.79;101587.06;4906231;29;20056;-66
2022/01/20 10:09:37;;;;;;;4.85;3.03;;;;;;;24.00;24.53;101571.41;4917722;29;20135;-65
2022/01/20 10:12:07;;;;;;;4.38;3.30;;;;;;;23.71;23.69;101568.59;4903049;29;20066;-65
2022/01/20 10:14:58;;;;;;;6.25;3.75;;;;;;;23.96;24.27;101580.97;4916224;29;20507;-66
2022/01/20 10:17:27;;;;;;;5.53;3.92;;;;;;;24.18;24.00;101588.38;4904447;29;20059;-65
2022/01/20 10:20:01;;;;;;;8.15;3.55;;;;;;;23.85;23.71;101564.28;4902450;29;20081;-65
2022/01/20 10:22:29;;;;;;;5.40;3.10;;;;;;;23.44;23.34;101573.56;4900319;29;20140;-64
2022/01/20 10:25:12;;;;;;;5.82;3.25;;;;;;;22.83;23.02;101582.31;4898381;29;20055;-65
2022/01/20 10:27:52;;;;;;;6.78;4.07;;;;;;;23.11;23.43;101596.16;4903503;29;20572;-65
2022/01/20 10:30:20;;;;;;;9.35;5.60;;;;;;;23.36;23.53;101608.66;4906412;29;20107;-65
2022/01/20 10:32:50;;;;;;;4.90;3.65;;;;;;;23.41;22.84;101591.34;4903982;29;20052;-64
2022/01/20 10:35:23;;;;;;;8.15;3.60;;;;;;;23.21;22.70;101594.97;4901372;29;20080;-65
2022/01/20 10:37:59;;;;;;;5.63;3.80;;;;;;;23.31;23.33;101601.13;4900105;29;20456;-65
2022/01/20 10:40:26;;;;;;;7.65;3.47;;;;;;;23.13;22.64;101611.75;4909144;29;20547;-65
2022/01/20 10:42:57;;;;;;;6.00;3.75;;;;;;;23.19;23.05;101612.41;4908962;29;20492;-63
2022/01/20 10:45:29;;;;;;;12.00;6.15;;;;;;;23.64;23.14;101612.69;4901223;29;20067;-64
2022/01/20 10:48:01;;;;;;;13.13;6.30;;;;;;;24.20;23.62;101603.94;4902420;29;20076;-64
2022/01/20 10:50:36;;;;;;;13.95;8.75;;;;;;;24.70;23.63;101617.31;4914987;29;20139;-65
2022/01/20 10:53:03;;;;;;;15.57;9.32;;;;;;;24.97;23.48;101604.44;4904541;29;20147;-64
2022/01/20 10:55:35;;;;;;;10.82;6.20;;;;;;;25.46;23.09;101603.69;4907602;29;20060;-65
2022/01/20 10:58:12;;;;;;;15.20;7.10;;;;;;;25.72;22.92;101600.50;4902547;29;20150;-64
2022/01/20 11:00:44;;;;;;;7.13;4.75;;;;;;;25.23;22.45;101604.16;4899835;29;20044;-64
2022/01/20 11:03:11;;;;;;;9.45;5.03;;;;;;;25.12;22.30;101605.81;4903384;29;20082;-63
2022/01/20 11:05:39;;;;;;;7.75;4.93;;;;;;;25.31;21.86;101601.56;4902366;29;20471;-64
2022/01/20 11:08:07;;;;;;;12.32;5.07;;;;;;;25.80;22.00;101602.41;4902926;29;20178;-64
2022/01/20 11:10:34;;;;;;;10.35;5.05;;;;;;;25.65;21.71;101531.59;4912856;29;20438;-65
2022/01/20 11:13:01;;;;;;;7.18;4.28;;;;;;;26.50;21.68;101602.16;4916187;29;20559;-65
2022/01/20 11:15:29;;;;;;;9.50;4.40;;;;;;;26.42;21.46;101605.97;4901855;29;21210;-65
2022/01/20 11:17:57;;;;;;;5.90;4.30;;;;;;;26.40;21.16;101580.56;4900563;29;20184;-64
2022/01/20 11:20:30;;;;;;;6.40;4.20;;;;;;;26.46;20.50;101607.75;4905022;29;20052;-65
2022/01/20 11:22:58;;;;;;;10.40;4.07;;;;;;;26.44;21.25;101621.59;4902764;29;20745;-63
2022/01/20 11:25:34;;;;;;;7.97;4.30;;;;;;;26.78;20.81;101605.00;4903196;29;20150;-65
2022/01/20 11:28:15;;;;;;;8.48;4.13;;;;;;;26.78;20.66;101601.31;4916092;29;20148;-65
2022/01/20 11:30:55;;;;;;;6.40;4.53;;;;;;;26.60;20.76;101598.78;4905679;29;20124;-65
2022/01/20 11:33:33;;;;;;;6.45;4.15;;;;;;;26.40;20.42;101600.63;4914933;29;20084;-65
2022/01/20 11:36:00;;;;;;;6.68;4.68;;;;;;;26.64;20.26;101599.72;4914679;29;20127;-64
2022/01/20 11:38:47;;;;;;;5.88;4.40;;;;;;;26.85;20.36;101582.28;4915675;29;20104;-63
2022/01/20 11:41:16;;;;;;;5.50;4.30;;;;;;;26.24;19.69;101530.97;4903746;29;20076;-64
2022/01/20 11:43:45;;;;;;;;;;;;;;;26.62;20.55;101575.47;4903827;29;20082;-65
2022/01/20 11:46:35;;;;;;;6.40;4.77;;;;;;;26.97;19.80;101575.63;4903270;29;19934;-65
2022/01/20 11:49:06;;;;;;;7.13;4.70;;;;;;;27.56;19.38;101563.28;4899006;29;20056;-64
2022/01/20 11:51:47;;;;;;;8.48;4.82;;;;;;;27.39;19.07;101567.38;4902543;29;20048;-62
2022/01/20 11:54:34;;;;;;;6.47;4.72;;;;;;;27.14;19.20;101557.28;4910969;29;20154;-64
2022/01/20 11:57:27;;;;;;;8.05;4.88;;;;;;;26.70;19.10;101555.28;4901855;29;20048;-64
2022/01/20 12:00:01;;;;;;;10.90;4.18;;;;;;;26.77;18.99;101553.78;4901229;29;20139;-64
2022/01/20 12:02:34;;;;;;;7.05;4.18;;;;;;;27.09;18.97;101538.28;4903928;29;20056;-65
2022/01/20 12:05:18;;;;;;;7.13;4.60;;;;;;;27.79;18.62;101533.91;4912863;29;20052;-65
2022/01/20 12:07:45;;;;;;;6.28;4.30;;;;;;;27.12;18.23;101465.03;4908985;29;20139;-64
2022/01/20 12:10:15;;;;;;;7.93;5.20;;;;;;;27.28;18.28;101513.78;4914712;29;20048;-64
2022/01/20 12:12:43;;;;;;;7.13;4.93;;;;;;;27.80;18.21;101538.44;4915007;29;20163;-65
2022/01/20 12:15:15;;;;;;;6.45;4.07;;;;;;;27.90;18.04;101532.13;4914247;29;20087;-64
2022/01/20 12:17:55;;;;;;;8.77;4.05;;;;;;;27.43;17.76;101541.63;4908862;29;20060;-64
2022/01/20 12:20:23;;;;;;;7.18;4.18;;;;;;;27.05;18.34;101536.53;4913382;29;20084;-64
2022/01/20 12:22:52;;;;;;;8.17;4.57;;;;;;;27.47;18.21;101521.63;4908709;29;20531;-65
2022/01/20 12:25:26;;;;;;;5.43;4.15;;;;;;;27.36;17.99;101518.50;4915687;29;20076;-65
2022/01/20 12:28:11;;;;;;;7.32;4.78;;;;;;;27.85;18.30;101495.09;4910388;29;20950;-64
2022/01/20 12:30:47;;;;;;;7.50;6.65;;;;;;;28.53;17.64;101497.34;4932950;28;20105;-64
2022/01/20 12:33:19;;;;;;;9.60;4.83;;;;;;;28.11;17.69;101492.38;4903005;29;20518;-65
2022/01/20 12:35:48;;;;;;;9.85;5.05;;;;;;;27.99;17.90;101475.28;4905276;29;20079;-64
2022/01/20 12:38:28;;;;;;;9.73;6.10;;;;;;;28.41;17.83;101486.06;4911663;29;20515;-63